Time;durP1;ratioP1;P1;durP2;ratioP2;P2;SDS_P1;SDS_P2;PMS_P1;PMS_P2;Temp;Humidity;BMP_temperature;BMP_pressure;BME280_temperature;BME280_humidity;BME280_pressure;Samples;Min_cycle;Max_cycle;Signal;HPM_P1;HPM_P2
2022/04/26 03:37:29;;;;;;;5.57;5.03;;;;;;;;;;5039261;28;20213;-83
2022/04/26 03:40:03;;;;;;;4.67;4.27;;;;;;;;;;5049784;28;20218;-81
2022/04/26 03:42:30;;;;;;;6.07;4.73;;;;;;;;;;5049230;28;20218;-84
2022/04/26 03:44:58;;;;;;;5.27;4.40;;;;;;;;;;5037603;28;20218;-81
2022/04/26 03:47:24;;;;;;;5.50;4.53;;;;;;;;;;5077250;28;20241;-80
2022/04/26 03:49:49;;;;;;;6.70;4.97;;;;;;;;;;5057715;28;20214;-81
2022/04/26 03:52:15;;;;;;;5.13;4.63;;;;;;;;;;5027742;28;20594;-83
2022/04/26 03:54:42;;;;;;;5.80;5.20;;;;;;;;;;5016180;28;20257;-82
2022/04/26 03:57:08;;;;;;;4.73;4.33;;;;;;;;;;5014287;28;20295;-82
2022/04/26 03:59:36;;;;;;;5.07;4.60;;;;;;;;;;5016801;28;20223;-83
2022/04/26 04:02:01;;;;;;;5.93;4.70;;;;;;;;;;5016352;28;20219;-82
2022/04/26 04:04:27;;;;;;;5.57;5.07;;;;;;;;;;5044639;28;20223;-80
2022/04/26 04:06:52;;;;;;;7.37;5.07;;;;;;;;;;5011503;28;20250;-82
2022/04/26 04:09:20;;;;;;;5.50;5.00;;;;;;;;;;5000756;28;20223;-82
2022/04/26 04:11:45;;;;;;;4.93;4.50;;;;;;;;;;5026458;28;20295;-81
2022/04/26 04:14:10;;;;;;;5.47;4.50;;;;;;;;;;5040012;28;20241;-81
2022/04/26 04:16:36;;;;;;;4.83;4.43;;;;;;;;;;5016280;28;20301;-80
2022/04/26 04:21:49;;;;;;;7.50;4.63;;;;;;;;;;5050068;28;20644;-81
2022/04/26 04:24:14;;;;;;;5.47;4.67;;;;;;;;;;5003914;28;20291;-79
2022/04/26 04:26:40;;;;;;;6.07;4.53;;;;;;;;;;5036873;28;20254;-82
2022/04/26 04:29:05;;;;;;;5.03;4.50;;;;;;;;;;4998333;28;20220;-83
2022/04/26 04:31:32;;;;;;;5.80;4.70;;;;;;;;;;5018121;28;20230;-83
2022/04/26 04:33:57;;;;;;;5.70;5.10;;;;;;;;;;5016675;28;20276;-83
2022/04/26 04:36:27;;;;;;;5.27;4.50;;;;;;;;;;5037885;28;20222;-83
2022/04/26 04:38:52;;;;;;;6.33;4.80;;;;;;;;;;5030819;28;20235;-83
2022/04/26 04:41:18;;;;;;;6.07;4.90;;;;;;;;;;5038612;28;20285;-82
2022/04/26 04:43:44;;;;;;;5.20;4.70;;;;;;;;;;5033667;28;20291;-83
2022/04/26 04:46:10;;;;;;;6.70;4.97;;;;;;;;;;5040052;28;20222;-83
2022/04/26 04:48:38;;;;;;;5.83;4.80;;;;;;;;;;5018878;28;20286;-83
2022/04/26 04:51:03;;;;;;;5.70;4.47;;;;;;;;;;5038151;28;20243;-82
2022/04/26 04:53:28;;;;;;;5.23;4.80;;;;;;;;;;5038524;28;20313;-83
2022/04/26 04:55:58;;;;;;;5.50;5.00;;;;;;;;;;5030768;28;20226;-82
2022/04/26 04:58:26;;;;;;;5.33;4.83;;;;;;;;;;5031098;28;20218;-84
2022/04/26 05:00:52;;;;;;;6.57;4.67;;;;;;;;;;5065563;28;20250;-82
2022/04/26 05:03:17;;;;;;;7.83;5.10;;;;;;;;;;5026740;28;20226;-81
2022/04/26 05:05:45;;;;;;;5.27;4.70;;;;;;;;;;5032950;28;20662;-80
2022/04/26 05:08:11;;;;;;;5.30;4.80;;;;;;;;;;5016833;28;20230;-81
2022/04/26 05:10:42;;;;;;;5.30;4.80;;;;;;;;;;5050633;28;20223;-81
2022/04/26 05:13:08;;;;;;;5.93;4.63;;;;;;;;;;5046949;28;20227;-80
2022/04/26 05:15:34;;;;;;;5.07;4.57;;;;;;;;;;5029923;28;20714;-81
2022/04/26 05:18:00;;;;;;;5.10;4.60;;;;;;;;;;5061349;28;20223;-79
2022/04/26 05:20:26;;;;;;;5.77;5.20;;;;;;;;;;5044054;28;20250;-78
2022/04/26 05:25:37;;;;;;;5.23;4.73;;;;;;;;;;5080944;28;20249;-81
2022/04/26 05:28:03;;;;;;;5.87;4.60;;;;;;;;;;5057895;28;20219;-82
2022/04/26 05:30:28;;;;;;;5.40;4.90;;;;;;;;;;5043709;28;20225;-84
2022/04/26 05:32:54;;;;;;;6.03;4.97;;;;;;;;;;5044958;28;20290;-81
2022/04/26 05:35:21;;;;;;;5.50;4.90;;;;;;;;;;5038212;28;20937;-82
2022/04/26 05:37:46;;;;;;;7.87;5.17;;;;;;;;;;5033426;28;20223;-81
2022/04/26 05:40:12;;;;;;;5.80;4.80;;;;;;;;;;5040594;28;20551;-83
2022/04/26 05:42:40;;;;;;;5.77;5.17;;;;;;;;;;5051277;28;20253;-81
2022/04/26 05:45:06;;;;;;;6.23;4.90;;;;;;;;;;5036384;28;20393;-80
2022/04/26 05:47:31;;;;;;;5.40;4.90;;;;;;;;;;5037956;28;20775;-81
2022/04/26 05:49:57;;;;;;;5.67;5.00;;;;;;;;;;5019526;28;20219;-80
2022/04/26 05:52:27;;;;;;;5.80;5.30;;;;;;;;;;5035981;28;20767;-81
2022/04/26 05:54:53;;;;;;;5.80;4.97;;;;;;;;;;5017732;28;20242;-81
2022/04/26 05:57:18;;;;;;;5.23;4.73;;;;;;;;;;5037078;28;20287;-81
2022/04/26 05:59:44;;;;;;;7.63;5.90;;;;;;;;;;5033573;28;20298;-81
2022/04/26 06:02:12;;;;;;;5.70;5.20;;;;;;;;;;5026070;28;20313;-79
2022/04/26 06:04:38;;;;;;;7.03;5.80;;;;;;;;;;5064290;28;20220;-79
2022/04/26 06:07:04;;;;;;;5.73;5.13;;;;;;;;;;5060267;28;20219;-80
2022/04/26 06:09:32;;;;;;;7.03;5.40;;;;;;;;;;5046076;28;20696;-83
2022/04/26 06:12:00;;;;;;;5.43;4.93;;;;;;;;;;5021802;28;20600;-82
2022/04/26 06:14:27;;;;;;;7.53;5.40;;;;;;;;;;5022894;28;20747;-83
2022/04/26 06:16:57;;;;;;;5.90;5.20;;;;;;;;;;5038783;28;20238;-82
2022/04/26 06:19:23;;;;;;;7.00;4.93;;;;;;;;;;5020668;28;20230;-82
2022/04/26 06:21:48;;;;;;;6.00;5.20;;;;;;;;;;5052458;28;20247;-82
2022/04/26 06:24:16;;;;;;;6.83;5.10;;;;;;;;;;5034357;28;20206;-82
2022/04/26 06:26:41;;;;;;;6.13;5.33;;;;;;;;;;5056628;28;20218;-82
2022/04/26 06:29:09;;;;;;;6.33;4.77;;;;;;;;;;5019701;28;20222;-82
2022/04/26 06:31:36;;;;;;;6.17;5.17;;;;;;;;;;5040160;28;20223;-81
2022/04/26 06:34:03;;;;;;;5.50;5.00;;;;;;;;;;5036325;28;20287;-82
2022/04/26 06:36:29;;;;;;;6.40;5.40;;;;;;;;;;5018354;28;20246;-82
2022/04/26 06:38:57;;;;;;;6.00;5.40;;;;;;;;;;5035374;28;20408;-82
2022/04/26 06:41:22;;;;;;;8.87;5.90;;;;;;;;;;5041347;28;20284;-81
2022/04/26 06:43:48;;;;;;;8.90;7.23;;;;;;;;;;5038206;28;20227;-83
2022/04/26 06:46:13;;;;;;;6.63;5.67;;;;;;;;;;5052988;28;20238;-82
2022/04/26 06:48:38;;;;;;;5.80;5.10;;;;;;;;;;5009325;28;20258;-81
2022/04/26 06:51:08;;;;;;;8.30;5.60;;;;;;;;;;5045760;28;20350;-79
2022/04/26 06:53:34;;;;;;;5.60;5.10;;;;;;;;;;5052101;28;20321;-79
2022/04/26 06:56:03;;;;;;;6.63;6.00;;;;;;;;;;5037823;28;20223;-82
2022/04/26 06:58:30;;;;;;;7.67;5.60;;;;;;;;;;5021620;28;20229;-82
2022/04/26 07:00:55;;;;;;;7.10;5.33;;;;;;;;;;5025738;28;20710;-82
2022/04/26 07:03:21;;;;;;;6.47;5.27;;;;;;;;;;5041161;28;20227;-82
2022/04/26 07:05:47;;;;;;;5.63;5.13;;;;;;;;;;5040865;28;20282;-81
2022/04/26 07:08:12;;;;;;;6.93;5.40;;;;;;;;;;5032990;28;20342;-82
2022/04/26 07:10:38;;;;;;;5.63;5.13;;;;;;;;;;5036042;28;20286;-82
2022/04/26 07:13:05;;;;;;;6.67;4.90;;;;;;;;;;5051369;28;20730;-82
2022/04/26 07:15:31;;;;;;;10.43;5.10;;;;;;;;;;5017616;28;20216;-83
2022/04/26 07:17:57;;;;;;;6.10;5.50;;;;;;;;;;5018910;28;20305;-82
2022/04/26 07:20:22;;;;;;;5.47;4.97;;;;;;;;;;5051375;28;20222;-83
2022/04/26 07:22:47;;;;;;;5.70;5.10;;;;;;;;;;5042493;28;20250;-83
2022/04/26 07:25:13;;;;;;;5.10;4.60;;;;;;;;;;5016893;28;20306;-81
2022/04/26 07:27:42;;;;;;;7.67;5.80;;;;;;;;;;5016049;28;20228;-81
2022/04/26 07:30:10;;;;;;;8.40;5.13;;;;;;;;;;5034708;28;20222;-82
2022/04/26 07:35:19;;;;;;;5.30;4.83;;;;;;;;;;5050702;28;20222;-82
2022/04/26 07:37:45;;;;;;;5.67;5.10;;;;;;;;;;5030145;28;20226;-81
2022/04/26 07:40:10;;;;;;;5.73;4.87;;;;;;;;;;5021292;28;20229;-82
2022/04/26 07:42:36;;;;;;;6.07;5.13;;;;;;;;;;5014104;28;20227;-82
2022/04/26 07:45:02;;;;;;;5.63;4.70;;;;;;;;;;5000515;28;20703;-83
2022/04/26 07:47:29;;;;;;;6.07;5.13;;;;;;;;;;5002481;28;20219;-81
2022/04/26 07:49:54;;;;;;;5.73;5.10;;;;;;;;;;5002392;28;20214;-82
2022/04/26 07:52:20;;;;;;;6.83;4.87;;;;;;;;;;4995496;28;20733;-83
2022/04/26 07:54:46;;;;;;;5.50;5.00;;;;;;;;;;5033266;28;20769;-81
2022/04/26 07:57:12;;;;;;;5.10;4.60;;;;;;;;;;5015534;28;20219;-82
2022/04/26 07:59:38;;;;;;;5.87;4.50;;;;;;;;;;5028964;28;20225;-82
2022/04/26 08:02:06;;;;;;;5.60;4.63;;;;;;;;;;5018001;28;20222;-79
2022/04/26 08:04:32;;;;;;;5.53;4.60;;;;;;;;;;5004909;28;20261;-81
2022/04/26 08:06:57;;;;;;;5.37;4.87;;;;;;;;;;5053508;28;20309;-81
2022/04/26 08:09:23;;;;;;;4.67;4.27;;;;;;;;;;5017359;28;20341;-82
2022/04/26 08:11:49;;;;;;;5.23;4.70;;;;;;;;;;5039548;28;20321;-81
2022/04/26 08:14:15;;;;;;;6.70;4.67;;;;;;;;;;5022599;28;20747;-82
2022/04/26 08:16:40;;;;;;;6.70;4.57;;;;;;;;;;5038239;28;20234;-83
2022/04/26 08:19:08;;;;;;;5.43;4.60;;;;;;;;;;5014913;28;20227;-80
2022/04/26 08:21:34;;;;;;;5.07;4.57;;;;;;;;;;5031515;28;20733;-81
2022/04/26 08:29:27;;;;;;;5.80;4.27;;;;;;;;;;5031301;28;20227;-82
2022/04/26 08:31:55;;;;;;;5.23;4.73;;;;;;;;;;5019109;28;20570;-81
2022/04/26 08:34:21;;;;;;;6.53;5.00;;;;;;;;;;5020256;28;20233;-80
2022/04/26 08:36:47;;;;;;;5.37;4.73;;;;;;;;;;5033397;28;20258;-78
2022/04/26 08:39:13;;;;;;;5.87;4.70;;;;;;;;;;5020037;28;20223;-82
2022/04/26 08:41:38;;;;;;;5.90;4.60;;;;;;;;;;5054489;28;20706;-80
2022/04/26 08:44:10;;;;;;;5.07;4.57;;;;;;;;;;5024454;28;20745;-82
2022/04/26 08:52:07;;;;;;;5.13;4.60;;;;;;;;;;5038388;28;20254;-82
2022/04/26 08:54:35;;;;;;;4.43;4.03;;;;;;;;;;5031089;28;20234;-84
2022/04/26 08:57:01;;;;;;;4.72;4.22;;;;;;;;;;5029260;28;20225;-81
2022/04/26 08:59:30;;;;;;;4.67;4.23;;;;;;;;;;5040725;28;20226;-81
2022/04/26 09:02:18;;;;;;;4.83;4.17;;;;;;;;;;5020788;28;20238;-82
2022/04/26 09:04:44;;;;;;;4.53;4.13;;;;;;;;;;5047133;28;20231;-83
2022/04/26 09:07:20;;;;;;;5.07;4.00;;;;;;;;;;4995410;28;20225;-84
2022/04/26 09:09:48;;;;;;;6.43;3.70;;;;;;;;;;5042935;28;20226;-81
2022/04/26 09:12:13;;;;;;;4.78;3.80;;;;;;;;;;5070129;28;20211;-82
2022/04/26 09:14:47;;;;;;;4.15;3.72;;;;;;;;;;5050623;28;20227;-80
2022/04/26 09:17:13;;;;;;;5.30;3.83;;;;;;;;;;5056129;28;20264;-80
2022/04/26 09:19:49;;;;;;;3.42;3.10;;;;;;;;;;5071358;28;20226;-81
2022/04/26 09:22:21;;;;;;;4.30;3.70;;;;;;;;;;5038388;28;20217;-79
2022/04/26 09:24:56;;;;;;;3.90;3.40;;;;;;;;;;5039124;28;20612;-84
2022/04/26 09:27:23;;;;;;;3.72;3.33;;;;;;;;;;5044048;28;20221;-81
2022/04/26 09:29:49;;;;;;;5.37;3.50;;;;;;;;;;5028943;28;20219;-83
2022/04/26 09:32:14;;;;;;;4.40;3.35;;;;;;;;;;5028688;28;20301;-82
2022/04/26 09:34:40;;;;;;;3.53;3.13;;;;;;;;;;5023519;28;20273;-80
2022/04/26 09:37:06;;;;;;;5.78;3.50;;;;;;;;;;5030058;28;20233;-83
2022/04/26 09:39:34;;;;;;;3.25;2.95;;;;;;;;;;5028365;28;20310;-79
2022/04/26 09:42:00;;;;;;;3.78;3.40;;;;;;;;;;5030781;28;20234;-81
2022/04/26 09:44:32;;;;;;;4.35;3.70;;;;;;;;;;5040222;28;20358;-83
2022/04/26 09:46:59;;;;;;;4.60;3.97;;;;;;;;;;5013456;28;20231;-83
2022/04/26 09:49:26;;;;;;;4.13;3.70;;;;;;;;;;5036895;28;20426;-81
2022/04/26 09:51:59;;;;;;;3.78;3.47;;;;;;;;;;5014559;28;20222;-81
2022/04/26 09:54:26;;;;;;;3.50;3.20;;;;;;;;;;5032740;28;20235;-80
2022/04/26 09:56:52;;;;;;;4.38;3.70;;;;;;;;;;5033255;28;20230;-79
2022/04/26 09:59:37;;;;;;;4.30;3.85;;;;;;;;;;5051088;28;20915;-81
2022/04/26 10:02:07;;;;;;;3.35;3.03;;;;;;;;;;5030138;28;20215;-80
2022/04/26 10:04:37;;;;;;;5.60;3.42;;;;;;;;;;5031993;28;20242;-81
2022/04/26 10:07:05;;;;;;;6.57;3.35;;;;;;;;;;5026312;28;20242;-79
2022/04/26 10:09:30;;;;;;;3.90;3.50;;;;;;;;;;5040642;28;20226;-81
2022/04/26 10:11:57;;;;;;;3.88;2.95;;;;;;;;;;5031130;28;20326;-81
2022/04/26 10:14:23;;;;;;;9.15;3.20;;;;;;;;;;5046342;28;20299;-80
2022/04/26 10:16:48;;;;;;;4.45;3.15;;;;;;;;;;5033589;28;20219;-78
2022/04/26 10:19:16;;;;;;;3.70;3.40;;;;;;;;;;5053522;28;20633;-79
2022/04/26 10:21:41;;;;;;;3.60;2.83;;;;;;;;;;5054051;28;20227;-80
2022/04/26 10:24:13;;;;;;;3.88;3.47;;;;;;;;;;5069094;28;20309;-79
2022/04/26 10:26:38;;;;;;;15.52;12.80;;;;;;;;;;5052574;28;20227;-81
2022/04/26 10:29:07;;;;;;;4.13;3.53;;;;;;;;;;5031995;28;20284;-81
2022/04/26 10:31:42;;;;;;;4.40;3.60;;;;;;;;;;5059240;28;20604;-80
2022/04/26 10:34:31;;;;;;;5.20;3.38;;;;;;;;;;5049410;28;20227;-81
2022/04/26 10:37:06;;;;;;;5.68;3.55;;;;;;;;;;5048420;28;20746;-80
2022/04/26 10:39:41;;;;;;;5.32;3.75;;;;;;;;;;5048743;28;20253;-81
2022/04/26 10:42:10;;;;;;;3.67;3.38;;;;;;;;;;5021256;28;20226;-81
2022/04/26 10:44:39;;;;;;;3.55;3.25;;;;;;;;;;5071138;28;20323;-81
2022/04/26 10:47:06;;;;;;;4.88;3.50;;;;;;;;;;5002956;28;20231;-82
2022/04/26 10:49:32;;;;;;;6.55;3.40;;;;;;;;;;5052900;28;20234;-83
2022/04/26 10:52:26;;;;;;;4.45;3.42;;;;;;;;;;5078377;28;20234;-82
2022/04/26 10:54:55;;;;;;;4.45;3.30;;;;;;;;;;5037246;28;20234;-82
2022/04/26 10:57:39;;;;;;;3.65;3.13;;;;;;;;;;5040406;28;20211;-81
2022/04/26 11:00:10;;;;;;;3.95;3.22;;;;;;;;;;5059195;28;20246;-81
2022/04/26 11:02:37;;;;;;;5.65;3.67;;;;;;;;;;5012463;28;20286;-79
2022/04/26 11:05:16;;;;;;;4.82;3.30;;;;;;;;;;5030163;28;20211;-79
2022/04/26 11:07:46;;;;;;;5.75;3.40;;;;;;;;;;5042419;28;20236;-79
2022/04/26 11:10:13;;;;;;;4.97;3.47;;;;;;;;;;5056236;28;20276;-79
2022/04/26 11:12:39;;;;;;;4.15;3.75;;;;;;;;;;5031891;28;20280;-81
2022/04/26 11:15:08;;;;;;;4.55;3.30;;;;;;;;;;5025404;28;20290;-81
2022/04/26 11:17:34;;;;;;;3.83;3.38;;;;;;;;;;5063482;28;20242;-80
2022/04/26 11:20:12;;;;;;;4.13;3.78;;;;;;;;;;5048195;28;20227;-80
2022/04/26 11:27:59;;;;;;;7.32;3.92;;;;;;;;;;5048767;28;20311;-82
2022/04/26 11:28:37;;;;;;;3.83;3.50;;;;;;;;;;5018715;28;20712;-81
2022/04/26 11:31:02;;;;;;;5.35;3.45;;;;;;;;;;5010555;28;20219;-80
2022/04/26 11:33:32;;;;;;;5.15;3.58;;;;;;;;;;5026718;28;20600;-80
2022/04/26 11:36:01;;;;;;;3.83;3.47;;;;;;;;;;5021747;28;20227;-82
2022/04/26 11:38:27;;;;;;;4.60;3.55;;;;;;;;;;5037935;28;20211;-81
2022/04/26 11:40:58;;;;;;;4.50;4.05;;;;;;;;;;5015586;28;20292;-82
2022/04/26 11:43:27;;;;;;;3.92;3.60;;;;;;;;;;5010469;28;20699;-81
2022/04/26 11:45:55;;;;;;;5.30;3.15;;;;;;;;;;5005213;28;20633;-82
2022/04/26 11:48:33;;;;;;;5.53;3.78;;;;;;;;;;5008170;28;20215;-82
2022/04/26 11:50:59;;;;;;;3.60;3.30;;;;;;;;;;5018517;28;20230;-82
2022/04/26 11:53:25;;;;;;;3.60;3.30;;;;;;;;;;5011047;28;20234;-81
2022/04/26 11:55:55;;;;;;;4.03;2.90;;;;;;;;;;5021205;28;20274;-80
2022/04/26 11:58:22;;;;;;;4.88;3.15;;;;;;;;;;5018808;28;20224;-80
2022/04/26 12:01:07;;;;;;;3.58;3.17;;;;;;;;;;5052401;28;20584;-80
2022/04/26 12:03:54;;;;;;;5.38;3.60;;;;;;;;;;5040786;28;20823;-80
2022/04/26 12:06:32;;;;;;;3.75;3.15;;;;;;;;;;5020261;28;20231;-82
2022/04/26 12:09:02;;;;;;;3.83;3.53;;;;;;;;;;5038833;28;20321;-81
2022/04/26 12:11:28;;;;;;;4.20;3.50;;;;;;;;;;5045243;28;20286;-83
2022/04/26 12:14:00;;;;;;;3.28;3.08;;;;;;;;;;5022820;28;20230;-83
2022/04/26 12:16:31;;;;;;;3.58;3.28;;;;;;;;;;5037787;28;20703;-82
2022/04/26 12:19:05;;;;;;;3.50;3.20;;;;;;;;;;5036453;28;20314;-81
2022/04/26 12:21:47;;;;;;;5.53;3.13;;;;;;;;;;5013591;28;20218;-81
2022/04/26 12:24:13;;;;;;;5.05;3.00;;;;;;;;;;5024127;28;20211;-81
2022/04/26 12:26:54;;;;;;;5.93;3.13;;;;;;;;;;5070678;28;20678;-82
2022/04/26 12:29:26;;;;;;;3.83;3.25;;;;;;;;;;5050640;28;20737;-80
2022/04/26 12:31:52;;;;;;;3.40;3.10;;;;;;;;;;5022646;28;20226;-83
2022/04/26 12:34:19;;;;;;;3.10;2.90;;;;;;;;;;5017139;28;20223;-79
2022/04/26 12:37:12;;;;;;;3.50;3.17;;;;;;;;;;5036594;28;20361;-82
2022/04/26 12:39:41;;;;;;;5.47;3.78;;;;;;;;;;5036910;28;20237;-80
2022/04/26 12:42:07;;;;;;;4.55;3.22;;;;;;;;;;5057580;28;20242;-82
2022/04/26 12:44:33;;;;;;;5.25;2.90;;;;;;;;;;5014075;28;20306;-80
2022/04/26 12:52:49;;;;;;;4.38;3.72;;;;;;;;;;5042486;28;20460;-80
2022/04/26 12:55:29;;;;;;;3.38;3.08;;;;;;;;;;5042062;28;20245;-81
2022/04/26 12:57:58;;;;;;;3.67;3.30;;;;;;;;;;5055986;28;20321;-82
2022/04/26 13:00:24;;;;;;;3.33;2.97;;;;;;;;;;5001354;28;20241;-78
2022/04/26 13:02:51;;;;;;;3.55;2.90;;;;;;;;;;5031787;28;20309;-78
2022/04/26 13:05:17;;;;;;;3.70;3.30;;;;;;;;;;5018410;28;20693;-79
2022/04/26 13:07:48;;;;;;;4.03;3.10;;;;;;;;;;5046382;28;20254;-79
2022/04/26 13:10:16;;;;;;;3.42;2.97;;;;;;;;;;5024828;28;20310;-79
2022/04/26 13:12:42;;;;;;;4.25;3.15;;;;;;;;;;5043620;28;20712;-79
2022/04/26 13:15:10;;;;;;;3.10;2.78;;;;;;;;;;5026448;28;20253;-79
2022/04/26 13:17:39;;;;;;;3.63;2.97;;;;;;;;;;5020259;28;20227;-79
2022/04/26 13:20:05;;;;;;;4.13;3.47;;;;;;;;;;5019346;28;20227;-78
2022/04/26 13:25:06;;;;;;;3.85;3.55;;;;;;;;;;4985933;28;20693;-80
2022/04/26 13:27:35;;;;;;;6.95;3.40;;;;;;;;;;4995338;28;20220;-78
2022/04/26 13:30:04;;;;;;;3.75;3.10;;;;;;;;;;4993573;28;20221;-79
2022/04/26 13:32:30;;;;;;;4.50;2.70;;;;;;;;;;4999572;28;20418;-78
2022/04/26 13:34:59;;;;;;;3.38;3.08;;;;;;;;;;4993186;28;20228;-80
2022/04/26 13:37:25;;;;;;;5.07;3.30;;;;;;;;;;4991047;28;20256;-79
2022/04/26 13:39:53;;;;;;;3.58;2.80;;;;;;;;;;5008188;28;20233;-79
2022/04/26 13:42:24;;;;;;;3.53;3.20;;;;;;;;;;5009085;28;20217;-81
2022/04/26 13:44:52;;;;;;;4.82;3.20;;;;;;;;;;4990359;28;20233;-79
2022/04/26 13:47:18;;;;;;;4.18;3.67;;;;;;;;;;5015367;28;20588;-79
2022/04/26 13:49:44;;;;;;;3.97;3.28;;;;;;;;;;4999118;28;20232;-79
2022/04/26 13:52:09;;;;;;;4.00;3.40;;;;;;;;;;4958865;28;20221;-79
2022/04/26 13:54:35;;;;;;;4.22;3.30;;;;;;;;;;4989174;28;20300;-78
2022/04/26 13:57:01;;;;;;;3.58;3.05;;;;;;;;;;4997231;28;20320;-80
2022/04/26 13:59:27;;;;;;;3.33;2.92;;;;;;;;;;4993739;28;21120;-78
2022/04/26 14:01:53;;;;;;;5.22;3.28;;;;;;;;;;4978614;28;20229;-79
2022/04/26 14:04:21;;;;;;;3.28;2.97;;;;;;;;;;5000142;28;20225;-78
2022/04/26 14:06:51;;;;;;;3.80;3.50;;;;;;;;;;5011119;28;20263;-78
2022/04/26 14:09:22;;;;;;;3.30;3.00;;;;;;;;;;5008484;28;20280;-78
2022/04/26 14:11:47;;;;;;;3.17;2.90;;;;;;;;;;4999771;28;20243;-78
2022/04/26 14:22:32;;;;;;;4.88;3.70;;;;;;;;;;5002102;28;20239;-81
2022/04/26 14:25:03;;;;;;;4.50;3.33;;;;;;;;;;4984962;28;20225;-78
2022/04/26 14:27:47;;;;;;;6.28;3.60;;;;;;;;;;4984366;28;20235;-79
2022/04/26 14:30:15;;;;;;;4.28;3.88;;;;;;;;;;5009742;28;20217;-78
2022/04/26 14:32:41;;;;;;;4.00;3.53;;;;;;;;;;5014936;28;20231;-79
2022/04/26 14:35:07;;;;;;;4.32;3.58;;;;;;;;;;5000156;28;20236;-79
2022/04/26 14:37:35;;;;;;;4.53;3.53;;;;;;;;;;5013580;28;20890;-79
2022/04/26 14:40:00;;;;;;;3.60;3.25;;;;;;;;;;4974517;28;20292;-79
2022/04/26 14:42:30;;;;;;;4.55;3.40;;;;;;;;;;4986326;28;20304;-79
2022/04/26 14:44:57;;;;;;;4.40;3.30;;;;;;;;;;5007751;28;20320;-78
2022/04/26 14:47:26;;;;;;;5.45;3.60;;;;;;;;;;4996850;28;20272;-78
2022/04/26 14:49:52;;;;;;;4.90;3.55;;;;;;;;;;4985685;28;20216;-78
2022/04/26 14:52:21;;;;;;;4.60;3.25;;;;;;;;;;5002539;28;20625;-79
2022/04/26 14:54:52;;;;;;;4.85;3.78;;;;;;;;;;4993028;28;20220;-78
2022/04/26 14:57:18;;;;;;;4.60;4.20;;;;;;;;;;4997848;28;20300;-79
2022/04/26 14:59:46;;;;;;;4.40;4.00;;;;;;;;;;4977330;28;20250;-79
2022/04/26 15:02:17;;;;;;;4.32;3.60;;;;;;;;;;5005771;28;20748;-80
2022/04/26 15:04:45;;;;;;;4.72;3.28;;;;;;;;;;4998550;28;20813;-79
2022/04/26 15:07:11;;;;;;;3.65;3.35;;;;;;;;;;5009210;28;20303;-77
2022/04/26 15:09:51;;;;;;;4.68;3.42;;;;;;;;;;4993234;28;20232;-78
2022/04/26 15:17:50;;;;;;;3.97;3.22;;;;;;;;;;4983305;28;20282;-79
2022/04/26 15:20:19;;;;;;;3.58;3.28;;;;;;;;;;4992537;28;20228;-78
2022/04/26 15:22:46;;;;;;;4.15;3.30;;;;;;;;;;4981467;28;20292;-77
2022/04/26 15:25:15;;;;;;;4.32;3.10;;;;;;;;;;5000118;28;20323;-78
2022/04/26 15:27:41;;;;;;;4.20;3.42;;;;;;;;;;4985070;28;20235;-77
2022/04/26 15:30:10;;;;;;;4.22;3.63;;;;;;;;;;4993690;28;20601;-78
2022/04/26 15:32:36;;;;;;;4.88;3.90;;;;;;;;;;4977775;28;20213;-79
2022/04/26 15:35:04;;;;;;;4.82;4.32;;;;;;;;;;5011832;28;20237;-78
2022/04/26 15:37:29;;;;;;;5.53;4.18;;;;;;;;;;4995736;28;20225;-77
2022/04/26 15:39:55;;;;;;;4.20;3.90;;;;;;;;;;4979327;28;20301;-78
2022/04/26 15:42:21;;;;;;;4.18;3.53;;;;;;;;;;5023320;28;20225;-78
2022/04/26 15:44:47;;;;;;;5.05;4.15;;;;;;;;;;4995870;28;20229;-77
2022/04/26 15:47:13;;;;;;;4.57;3.63;;;;;;;;;;5003293;28;20218;-78
2022/04/26 15:49:39;;;;;;;6.13;3.60;;;;;;;;;;4987710;28;20229;-77
2022/04/26 15:52:09;;;;;;;5.13;3.78;;;;;;;;;;5001459;28;20300;-78
2022/04/26 15:54:35;;;;;;;5.38;4.75;;;;;;;;;;4995198;28;20686;-78
2022/04/26 15:57:04;;;;;;;7.40;4.57;;;;;;;;;;4992999;28;20236;-79
2022/04/26 15:59:30;;;;;;;6.05;5.45;;;;;;;;;;4992082;28;20225;-79
2022/04/26 16:01:55;;;;;;;6.68;6.07;;;;;;;;;;5010971;28;20248;-78
2022/04/26 16:04:21;;;;;;;8.05;5.60;;;;;;;;;;4985693;28;20213;-79
2022/04/26 16:06:49;;;;;;;7.75;7.05;;;;;;;;;;5006719;28;20274;-78
2022/04/26 16:20:29;;;;;;;6.38;4.85;;;;;;;;;;4999860;28;20255;-86
2022/04/26 16:22:57;;;;;;;5.47;4.97;;;;;;;;;;4989338;28;20256;-86
2022/04/26 16:25:23;;;;;;;6.18;5.65;;;;;;;;;;4999133;28;20224;-82
2022/04/26 16:27:49;;;;;;;5.68;4.78;;;;;;;;;;5001474;28;20240;-88
2022/04/26 16:30:16;;;;;;;5.55;5.05;;;;;;;;;;5004909;28;20228;-87
2022/04/26 16:32:43;;;;;;;5.20;4.80;;;;;;;;;;5001641;28;20216;-85
2022/04/26 16:35:11;;;;;;;5.45;4.90;;;;;;;;;;4977356;28;20235;-85
2022/04/26 16:37:40;;;;;;;4.72;4.32;;;;;;;;;;5004657;28;20236;-86
2022/04/26 16:40:07;;;;;;;5.70;5.10;;;;;;;;;;4975486;28;20249;-83
2022/04/26 16:42:33;;;;;;;5.53;4.85;;;;;;;;;;4969594;28;20224;-85
2022/04/26 16:45:06;;;;;;;6.00;5.00;;;;;;;;;;4955286;28;20296;-84
2022/04/26 16:47:34;;;;;;;5.95;5.13;;;;;;;;;;5033521;28;20228;-85
2022/04/26 16:50:04;;;;;;;5.55;5.07;;;;;;;;;;4983306;28;20285;-83
2022/04/26 16:52:32;;;;;;;5.65;4.82;;;;;;;;;;4978726;28;21037;-84
2022/04/26 16:54:57;;;;;;;4.50;4.10;;;;;;;;;;4960885;28;20313;-87
2022/04/26 16:57:28;;;;;;;4.85;4.45;;;;;;;;;;4974132;28;20232;-83
2022/04/26 16:59:57;;;;;;;5.35;4.95;;;;;;;;;;4993426;28;20244;-84
2022/04/26 17:02:23;;;;;;;7.43;4.72;;;;;;;;;;4959507;28;20630;-84
2022/04/26 17:04:49;;;;;;;5.75;4.90;;;;;;;;;;5000926;28;20268;-82
2022/04/26 17:07:17;;;;;;;6.47;4.97;;;;;;;;;;4984033;28;20239;-84
2022/04/26 17:09:43;;;;;;;7.65;5.10;;;;;;;;;;4961766;28;20257;-85
2022/04/26 17:12:14;;;;;;;5.82;4.90;;;;;;;;;;4988052;28;20633;-86
2022/04/26 17:14:41;;;;;;;5.28;4.80;;;;;;;;;;4987528;28;20433;-84
2022/04/26 17:17:11;;;;;;;5.65;4.75;;;;;;;;;;4991972;28;20223;-84
2022/04/26 17:19:42;;;;;;;7.72;5.13;;;;;;;;;;4979553;28;20225;-86
2022/04/26 17:22:08;;;;;;;5.57;4.90;;;;;;;;;;4998102;28;20281;-87
2022/04/26 17:27:20;;;;;;;5.95;4.82;;;;;;;;;;5004356;28;20259;-87
2022/04/26 17:29:48;;;;;;;5.45;4.95;;;;;;;;;;5010982;28;20217;-84
2022/04/26 17:32:17;;;;;;;6.85;5.05;;;;;;;;;;5011189;28;20223;-86
2022/04/26 17:34:45;;;;;;;5.10;4.60;;;;;;;;;;5013964;28;20228;-84
2022/04/26 17:37:13;;;;;;;5.57;4.45;;;;;;;;;;4948104;28;20225;-86
2022/04/26 17:39:41;;;;;;;5.55;4.30;;;;;;;;;;4964753;28;20221;-86
2022/04/26 17:42:07;;;;;;;7.03;4.10;;;;;;;;;;4986570;28;20213;-85
2022/04/26 17:44:34;;;;;;;5.22;4.60;;;;;;;;;;5012039;28;20252;-86
2022/04/26 17:47:01;;;;;;;10.32;8.32;;;;;;;;;;5001962;28;20252;-85
2022/04/26 17:49:27;;;;;;;8.15;7.35;;;;;;;;;;4996167;28;20217;-83
2022/04/26 17:51:53;;;;;;;9.80;6.40;;;;;;;;;;4973941;28;20232;-83
2022/04/26 17:57:09;;;;;;;6.32;5.20;;;;;;;;;;5001390;28;20236;-81
2022/04/26 17:59:34;;;;;;;7.97;5.07;;;;;;;;;;4999526;28;20230;-86
2022/04/26 18:02:00;;;;;;;6.15;5.00;;;;;;;;;;5002630;28;20231;-86
2022/04/26 18:04:27;;;;;;;8.03;5.03;;;;;;;;;;5010276;28;20225;-85
2022/04/26 18:06:58;;;;;;;7.47;4.90;;;;;;;;;;5014302;28;20235;-86
2022/04/26 18:09:25;;;;;;;8.17;5.40;;;;;;;;;;4971085;28;20228;-86
2022/04/26 18:11:51;;;;;;;5.97;4.30;;;;;;;;;;4991986;28;20229;-84
2022/04/26 18:14:20;;;;;;;7.13;5.00;;;;;;;;;;5007801;28;20298;-83
2022/04/26 18:16:45;;;;;;;6.20;4.22;;;;;;;;;;4997144;28;20229;-81
2022/04/26 18:19:14;;;;;;;5.43;4.17;;;;;;;;;;5012567;28;20251;-85
2022/04/26 18:21:42;;;;;;;4.70;4.20;;;;;;;;;;4980018;28;20221;-85
2022/04/26 18:24:07;;;;;;;6.43;5.10;;;;;;;;;;4995685;28;20718;-84
2022/04/26 18:26:33;;;;;;;5.13;4.23;;;;;;;;;;5000658;28;20695;-84
2022/04/26 18:28:59;;;;;;;10.90;5.57;;;;;;;;;;4986486;28;20289;-83
2022/04/26 18:31:32;;;;;;;5.80;4.43;;;;;;;;;;4990434;28;20226;-84
2022/04/26 18:34:00;;;;;;;7.20;3.70;;;;;;;;;;4991421;28;20233;-83
2022/04/26 18:36:25;;;;;;;7.93;4.13;;;;;;;;;;5010220;28;20228;-83
2022/04/26 18:38:57;;;;;;;5.67;3.77;;;;;;;;;;4983493;28;20214;-81
2022/04/26 18:41:25;;;;;;;5.45;3.78;;;;;;;;;;5005676;28;20224;-85
2022/04/26 18:43:56;;;;;;;5.57;3.97;;;;;;;;;;5015540;28;20212;-81
2022/04/26 18:46:21;;;;;;;4.73;3.67;;;;;;;;;;5015619;28;20228;-85
2022/04/26 18:48:51;;;;;;;7.07;4.20;;;;;;;;;;4978914;28;20251;-83
2022/04/26 18:51:20;;;;;;;5.43;4.30;;;;;;;;;;4993062;28;20341;-86
2022/04/26 18:53:45;;;;;;;7.33;4.20;;;;;;;;;;4999339;28;20294;-84
2022/04/26 18:56:11;;;;;;;5.63;4.00;;;;;;;;;;5007496;28;20221;-85
2022/04/26 18:58:37;;;;;;;7.67;4.00;;;;;;;;;;4999283;28;20316;-85
2022/04/26 19:01:03;;;;;;;6.13;4.20;;;;;;;;;;4977840;28;20241;-84
2022/04/26 19:03:29;;;;;;;6.00;4.07;;;;;;;;;;5001657;28;20225;-81
2022/04/26 19:05:56;;;;;;;6.97;4.27;;;;;;;;;;5007541;28;20280;-82
2022/04/26 19:08:22;;;;;;;5.67;4.30;;;;;;;;;;5023137;28;20690;-85
2022/04/26 19:13:37;;;;;;;5.60;4.00;;;;;;;;;;5020421;28;20323;-84
2022/04/26 19:16:05;;;;;;;8.40;4.17;;;;;;;;;;5012320;28;20217;-82
2022/04/26 19:18:31;;;;;;;8.70;4.50;;;;;;;;;;5011183;28;20221;-81
2022/04/26 19:20:57;;;;;;;5.73;4.30;;;;;;;;;;5011860;28;20256;-82
2022/04/26 19:23:32;;;;;;;5.87;4.13;;;;;;;;;;4976039;28;20284;-82
2022/04/26 19:26:00;;;;;;;7.40;4.00;;;;;;;;;;5010871;28;20315;-84
2022/04/26 19:28:27;;;;;;;7.27;4.33;;;;;;;;;;5010442;28;20307;-84